Aeroporto :
LOGIN :

Iscrizione | Disclaimer

   EN    FR    IT 

 










Sommario :    VFR   VFR Marginale   IFR   IFR Intensivo   IFR Molto Intensivo
Visibilità : 
Base nubi : 
>= 8 km
>= 3000ft
5 / 8 km
1000 / 3000 ft
1500m / 5 km
500 / 1000 ft
800 / 1500m
200 / 500 ft
< 800m
< 200 ft
Simboli :   Temporali  Nebbia  Neve Forte  Precipitazioni Forti  Vento > 20 kt
SIGMETs :   Varie  Temporali  Ghiacco  Turbolenza  Onda orograficha  Ceneri Vulcaniche






- Altitudine del aeroporto : 1046 ft
- Codice IATA : NUE


EDDN - Nuremberg

ULTIMO METAR :
  • 291720Z 05007KT 010V100 CAVOK 19/03 Q1023 NOSIG

METARs OBSOLETI :
  • 291650Z 04006KT 010V080 CAVOK 19/03 Q1023 NOSIG
  • 291620Z 04009KT 010V070 CAVOK 18/04 Q1024 NOSIG
  • 291550Z VRB05KT CAVOK 19/03 Q1024 NOSIG
  • 291520Z 08006KT 350V120 CAVOK 20/04 Q1024 NOSIG
  • 291450Z VRB07KT CAVOK 20/05 Q1024 NOSIG

TAF TAF EDDN
Valido dal 29 a 12 ore il 30 a 12 ore UTC


291100Z 2912/3012 05008KT 9999 FEW040
BECMG 2921/2924 01002KT
BECMG 3007/3009 02007KT



MetMap, La meteo Aeronautica in un colpo d'occhio ! - Copyright ORBIFLY Dicembre 2007 - Disclaimer

ORBIFLY MET'MAP TEAM :

Programmazione e sviluppo : Alexandra Zaïnal
Concezione : Baudouin d'Aumeries
Aiuto per la programmazione : Marc-Olivier Méhu
Supporto tecnico e logistico : Manuel Goepfert
Aiuto per la traduzione : Arnaldo La Scala

Contatto : metmap@orbifly.com




FONTI E CREDITI :

   NOAA